Avondale, Texas
Current Conditions -  °F | °C
As of 7:52 PM on Friday 24 Oct 2014 (Local Time) from KHRL Reporting Station
Clear Clear  
Wind Chill: 71°   Ceiling: Unl
Heat Index: 71°   Visibility: 10mi
Dew Point: 65°   Wind: 5mph
Humidity: 81%   Direction: 60°ENE
Pressure: 30.1"   Gusts: NA
Location:  26.2089°N, 97.6849°W
Report Text: KHRL 250052Z 06004KT 10SM CLR 22/18 A3010 RMK AO2 SLP190 T02170183
Loading
Personal Weather Stations






























Interactive Weather Map
Tropical Storm Tracking
New forecast layout! Learn more

10-Day Weather Forecast

Advertisements
Track Severe Weather on mobile